Time;durP1;ratioP1;P1;durP2;ratioP2;P2;SDS_P1;SDS_P2;PMS_P1;PMS_P2;Temp;Humidity;BMP_temperature;BMP_pressure;BME280_temperature;BME280_humidity;BME280_pressure;Samples;Min_cycle;Max_cycle;Signal;HPM_P1;HPM_P2
2022/02/13 00:01:55;;;;;;;14.17;4.70;;;1.50;99.90;;;;;;4990579;28;20033;-74
2022/02/13 00:04:22;;;;;;;11.70;4.27;;;1.50;99.90;;;;;;4953813;28;20054;-74
2022/02/13 00:06:48;;;;;;;6.37;3.53;;;1.50;99.90;;;;;;4986443;28;20042;-73
2022/02/13 00:09:15;;;;;;;11.27;4.53;;;1.50;99.90;;;;;;4991073;28;20038;-74
2022/02/13 00:11:41;;;;;;;10.77;4.43;;;1.50;99.90;;;;;;4993568;28;20405;-73
2022/02/13 00:14:07;;;;;;;9.23;4.13;;;1.50;99.90;;;;;;4981167;28;20045;-74
2022/02/13 00:16:36;;;;;;;10.23;4.50;;;1.40;99.90;;;;;;4993228;28;20034;-74
2022/02/13 00:19:03;;;;;;;7.33;3.57;;;1.40;99.90;;;;;;4975248;28;20041;-75
2022/02/13 00:21:30;;;;;;;10.30;3.40;;;1.40;99.90;;;;;;4977400;28;20402;-74
2022/02/13 00:23:58;;;;;;;8.87;4.57;;;1.30;99.90;;;;;;4993117;28;20379;-74
2022/02/13 00:26:24;;;;;;;10.00;3.77;;;1.30;99.90;;;;;;4959740;28;20038;-75
2022/02/13 00:28:50;;;;;;;7.30;3.33;;;1.30;99.90;;;;;;4960332;28;20695;-74
2022/02/13 00:31:17;;;;;;;9.43;4.07;;;1.30;99.90;;;;;;4992755;28;20049;-74
2022/02/13 00:33:44;;;;;;;9.50;3.90;;;1.30;99.90;;;;;;4992878;28;20062;-73
2022/02/13 00:36:10;;;;;;;9.50;4.00;;;1.30;99.90;;;;;;4993920;28;20045;-74
2022/02/13 00:38:37;;;;;;;7.77;3.50;;;1.30;99.90;;;;;;4976347;28;20046;-74
2022/02/13 00:41:03;;;;;;;10.43;3.93;;;1.20;99.90;;;;;;4994487;28;20482;-77
2022/02/13 00:43:29;;;;;;;14.10;4.83;;;1.20;99.90;;;;;;4975497;28;20046;-75
2022/02/13 00:45:56;;;;;;;9.57;4.27;;;1.20;99.90;;;;;;4993744;28;20042;-76
2022/02/13 00:48:22;;;;;;;13.20;4.93;;;1.20;99.90;;;;;;4951665;28;20038;-75
2022/02/13 00:50:49;;;;;;;7.10;3.77;;;1.10;99.90;;;;;;4959936;28;20038;-74
2022/02/13 00:53:15;;;;;;;8.50;4.60;;;1.20;99.90;;;;;;4994890;28;20035;-74
2022/02/13 00:55:42;;;;;;;10.30;4.97;;;1.10;99.90;;;;;;4976375;28;20038;-74
2022/02/13 00:58:08;;;;;;;12.33;6.13;;;1.10;99.90;;;;;;4992086;28;20509;-74
2022/02/13 01:00:35;;;;;;;13.70;5.70;;;1.20;99.90;;;;;;4996615;28;20053;-74
2022/02/13 01:03:01;;;;;;;10.60;4.80;;;1.10;99.90;;;;;;4994317;28;20421;-74
2022/02/13 01:05:28;;;;;;;14.40;4.43;;;1.10;99.90;;;;;;4995518;28;20026;-74
2022/02/13 01:07:57;;;;;;;9.07;4.03;;;1.10;99.90;;;;;;4973575;28;20038;-75
2022/02/13 01:10:24;;;;;;;10.27;4.43;;;1.10;99.90;;;;;;4978240;28;20034;-74
2022/02/13 01:12:50;;;;;;;7.70;3.37;;;1.10;99.90;;;;;;4999589;28;20425;-74
2022/02/13 01:15:17;;;;;;;9.30;4.83;;;1.00;99.90;;;;;;4978951;28;20045;-74
2022/02/13 01:17:43;;;;;;;7.33;3.53;;;0.90;99.90;;;;;;4989405;28;20045;-75
2022/02/13 01:20:10;;;;;;;5.73;3.07;;;0.90;99.90;;;;;;4979725;28;20053;-74
2022/02/13 01:22:37;;;;;;;11.17;5.27;;;0.90;99.90;;;;;;4996175;28;20378;-73
2022/02/13 01:25:05;;;;;;;6.90;3.33;;;0.80;99.90;;;;;;4978401;28;20126;-73
2022/02/13 01:27:31;;;;;;;9.20;5.20;;;0.90;99.90;;;;;;4990252;28;20402;-74
2022/02/13 01:29:58;;;;;;;6.67;3.43;;;0.90;99.90;;;;;;4967164;28;20061;-74
2022/02/13 01:32:24;;;;;;;8.80;3.77;;;0.80;99.90;;;;;;4962865;28;20521;-75
2022/02/13 01:34:51;;;;;;;10.77;4.37;;;0.80;99.90;;;;;;4980886;28;20034;-74
2022/02/13 01:37:17;;;;;;;9.97;3.83;;;0.80;99.90;;;;;;4992203;28;20037;-74
2022/02/13 01:39:46;;;;;;;9.17;3.37;;;0.80;99.90;;;;;;4995612;28;20037;-75
2022/02/13 01:42:14;;;;;;;10.30;4.47;;;0.70;99.90;;;;;;4978377;28;20030;-74
2022/02/13 01:44:40;;;;;;;9.97;5.07;;;0.70;99.90;;;;;;4994378;28;20053;-75
2022/02/13 01:47:08;;;;;;;11.10;3.60;;;0.70;99.90;;;;;;4991913;28;20061;-75
2022/02/13 01:49:35;;;;;;;12.60;5.47;;;0.70;99.90;;;;;;4994341;28;20038;-74
2022/02/13 01:52:03;;;;;;;8.10;4.00;;;0.70;99.90;;;;;;4960508;28;20049;-75
2022/02/13 01:54:30;;;;;;;9.63;4.60;;;0.70;99.90;;;;;;4990493;28;20034;-75
2022/02/13 01:56:57;;;;;;;8.60;4.67;;;0.70;99.90;;;;;;4990855;28;20042;-75
2022/02/13 01:59:24;;;;;;;7.87;3.50;;;0.70;99.90;;;;;;4994381;28;20394;-74
2022/02/13 02:01:50;;;;;;;8.83;4.03;;;0.60;99.90;;;;;;4961976;28;20034;-74
2022/02/13 02:04:17;;;;;;;13.73;4.00;;;0.60;99.90;;;;;;4993695;28;20065;-74
2022/02/13 02:06:43;;;;;;;14.30;4.77;;;0.60;99.90;;;;;;4976705;28;20050;-74
2022/02/13 02:09:10;;;;;;;8.47;4.30;;;0.60;99.90;;;;;;4975186;28;20100;-74
2022/02/13 02:11:37;;;;;;;15.67;4.53;;;0.60;99.90;;;;;;4992870;28;20042;-75
2022/02/13 02:14:04;;;;;;;9.53;4.10;;;0.60;99.90;;;;;;4994260;28;20046;-75
2022/02/13 02:16:31;;;;;;;11.80;3.90;;;0.60;99.90;;;;;;4962149;28;20394;-75
2022/02/13 02:18:58;;;;;;;10.47;4.57;;;0.60;99.90;;;;;;4975204;28;20037;-74
2022/02/13 02:21:24;;;;;;;13.73;5.80;;;0.60;99.90;;;;;;4977203;28;20098;-74
2022/02/13 02:23:50;;;;;;;12.80;4.70;;;0.60;99.90;;;;;;4976839;28;20042;-75
2022/02/13 02:26:18;;;;;;;13.03;5.23;;;0.60;99.90;;;;;;4960411;28;20046;-75
2022/02/13 02:28:45;;;;;;;9.03;4.50;;;0.70;99.90;;;;;;4989546;28;20033;-75
2022/02/13 02:31:12;;;;;;;10.77;5.17;;;0.60;99.90;;;;;;4985270;28;20213;-75
2022/02/13 02:33:38;;;;;;;12.03;5.43;;;0.60;99.90;;;;;;4995822;28;20428;-75
2022/02/13 02:36:05;;;;;;;11.10;5.03;;;0.70;99.90;;;;;;4993692;28;20046;-75
2022/02/13 02:38:31;;;;;;;14.60;4.83;;;0.70;99.90;;;;;;4973438;28;20045;-75
2022/02/13 02:40:58;;;;;;;9.10;4.10;;;0.70;99.90;;;;;;4979905;28;20027;-75
2022/02/13 02:43:24;;;;;;;15.33;4.87;;;0.70;99.90;;;;;;4994887;28;20034;-75
2022/02/13 02:45:51;;;;;;;12.77;4.43;;;0.70;99.90;;;;;;4993656;28;20362;-75
2022/02/13 02:48:17;;;;;;;11.40;5.47;;;0.70;99.90;;;;;;4983637;28;20046;-75
2022/02/13 02:50:43;;;;;;;9.00;4.77;;;0.70;99.90;;;;;;4975635;28;20053;-75
2022/02/13 02:53:11;;;;;;;13.30;4.40;;;0.70;99.90;;;;;;4989833;28;20045;-75
2022/02/13 02:55:39;;;;;;;11.80;5.00;;;0.70;99.90;;;;;;4959293;28;20042;-74
2022/02/13 02:58:05;;;;;;;7.87;3.80;;;0.70;99.90;;;;;;4986695;28;20043;-75
2022/02/13 03:00:32;;;;;;;10.80;4.20;;;0.70;99.90;;;;;;4990331;28;20034;-74
2022/02/13 03:03:04;;;;;;;10.77;4.70;;;0.70;99.90;;;;;;4977292;28;20038;-75
2022/02/13 03:05:33;;;;;;;10.70;4.27;;;0.70;99.90;;;;;;4988590;28;20038;-74
2022/02/13 03:08:00;;;;;;;8.70;4.40;;;0.70;99.90;;;;;;4990351;28;20433;-75
2022/02/13 03:10:26;;;;;;;9.37;5.10;;;0.70;99.90;;;;;;4977988;28;20462;-74
2022/02/13 03:12:53;;;;;;;10.70;5.03;;;0.70;99.90;;;;;;4995132;28;20037;-75
2022/02/13 03:15:19;;;;;;;10.33;5.10;;;0.70;99.90;;;;;;4978330;28;20049;-76
2022/02/13 03:17:46;;;;;;;12.13;5.07;;;0.70;99.90;;;;;;4987757;28;20034;-76
2022/02/13 03:20:13;;;;;;;9.63;4.87;;;0.70;99.90;;;;;;4990163;28;20030;-76
2022/02/13 03:22:39;;;;;;;9.03;4.03;;;0.70;99.90;;;;;;4972963;28;20115;-76
2022/02/13 03:25:06;;;;;;;10.47;5.03;;;0.70;99.90;;;;;;4974881;28;20042;-76
2022/02/13 03:27:32;;;;;;;10.50;5.43;;;0.70;99.90;;;;;;4975537;28;20607;-76
2022/02/13 03:29:59;;;;;;;14.67;6.27;;;0.70;99.90;;;;;;4977339;28;20042;-75
2022/02/13 03:32:25;;;;;;;8.70;4.97;;;0.70;99.90;;;;;;4989867;28;20035;-75
2022/02/13 03:34:51;;;;;;;11.87;5.43;;;0.70;99.90;;;;;;4992847;28;20466;-75
2022/02/13 03:37:18;;;;;;;9.90;4.67;;;0.70;99.90;;;;;;4992800;28;20621;-75
2022/02/13 03:39:44;;;;;;;8.83;3.83;;;0.70;99.90;;;;;;4977905;28;20053;-75
2022/02/13 03:42:12;;;;;;;8.63;4.23;;;0.70;99.90;;;;;;4991644;28;20490;-75
2022/02/13 03:44:38;;;;;;;8.30;4.20;;;0.70;99.90;;;;;;4977094;28;20050;-75
2022/02/13 03:47:06;;;;;;;9.27;4.60;;;0.70;99.90;;;;;;4993091;28;20050;-75
2022/02/13 03:49:33;;;;;;;10.47;4.53;;;0.70;99.90;;;;;;4990264;28;20076;-75
2022/02/13 03:51:59;;;;;;;6.70;3.87;;;0.70;99.90;;;;;;4994476;28;20454;-75
2022/02/13 03:54:25;;;;;;;10.33;4.33;;;0.70;99.90;;;;;;4979770;28;20049;-75
2022/02/13 03:56:52;;;;;;;5.13;2.87;;;0.70;99.90;;;;;;4980687;28;20043;-75
2022/02/13 03:59:18;;;;;;;8.30;3.80;;;0.70;99.90;;;;;;4982280;28;20042;-75
2022/02/13 04:01:45;;;;;;;8.33;3.87;;;0.70;99.90;;;;;;4993128;28;20038;-75
2022/02/13 04:04:11;;;;;;;8.87;4.17;;;0.70;99.90;;;;;;4992436;28;20054;-75
2022/02/13 04:06:37;;;;;;;9.93;4.30;;;0.60;99.90;;;;;;4998849;28;20030;-75
2022/02/13 04:09:04;;;;;;;9.80;3.87;;;0.60;99.90;;;;;;4967064;28;20042;-75
2022/02/13 04:11:31;;;;;;;9.27;4.13;;;0.70;99.90;;;;;;4999594;28;20038;-75
2022/02/13 04:13:57;;;;;;;6.80;3.50;;;0.70;99.90;;;;;;5001803;28;20058;-75
2022/02/13 04:16:23;;;;;;;6.90;3.80;;;0.70;99.90;;;;;;5000202;28;20038;-75
2022/02/13 04:18:50;;;;;;;8.50;4.53;;;0.70;99.90;;;;;;4996839;28;20045;-75
2022/02/13 04:21:17;;;;;;;8.40;4.53;;;0.70;99.90;;;;;;4979160;28;20039;-75
2022/02/13 04:23:43;;;;;;;9.03;4.30;;;0.80;99.90;;;;;;4975678;28;20042;-75
2022/02/13 04:26:10;;;;;;;6.93;3.73;;;0.80;99.90;;;;;;4979445;28;20046;-75
2022/02/13 04:28:36;;;;;;;9.57;4.20;;;0.80;99.90;;;;;;4990693;28;20026;-75
2022/02/13 04:31:05;;;;;;;8.00;4.63;;;0.80;99.90;;;;;;4981532;28;20039;-75
2022/02/13 04:33:32;;;;;;;9.73;3.77;;;0.80;99.90;;;;;;4983959;28;20561;-75
2022/02/13 04:35:58;;;;;;;11.53;4.80;;;0.80;99.90;;;;;;4965109;28;20042;-76
2022/02/13 04:38:25;;;;;;;7.53;4.23;;;0.90;99.90;;;;;;4977285;28;20042;-76
2022/02/13 04:40:51;;;;;;;10.07;5.10;;;0.90;99.90;;;;;;4999556;28;20482;-76
2022/02/13 04:43:18;;;;;;;10.27;4.73;;;0.90;99.90;;;;;;5000585;28;20039;-76
2022/02/13 04:45:44;;;;;;;9.20;4.13;;;0.90;99.90;;;;;;4991963;28;20045;-76
2022/02/13 04:48:11;;;;;;;8.10;4.53;;;0.90;99.90;;;;;;4960586;28;20038;-76
2022/02/13 04:50:37;;;;;;;12.87;3.70;;;0.90;99.90;;;;;;4976235;28;20034;-75
2022/02/13 04:53:03;;;;;;;10.57;5.13;;;0.90;99.90;;;;;;4983431;28;20034;-74
2022/02/13 04:55:30;;;;;;;6.43;3.50;;;0.90;99.90;;;;;;4991269;28;20045;-75
2022/02/13 04:57:56;;;;;;;7.47;3.60;;;0.90;99.90;;;;;;4987907;28;20042;-75
2022/02/13 05:00:23;;;;;;;8.50;3.73;;;0.90;99.90;;;;;;4992298;28;20034;-74
2022/02/13 05:02:49;;;;;;;6.03;4.07;;;0.80;99.90;;;;;;4991916;28;20034;-75
2022/02/13 05:05:15;;;;;;;6.60;3.40;;;0.80;99.90;;;;;;4978110;28;20057;-76
2022/02/13 05:07:42;;;;;;;7.60;4.13;;;0.80;99.90;;;;;;4974547;28;20053;-76
2022/02/13 05:10:09;;;;;;;9.57;5.43;;;0.80;99.90;;;;;;4981591;28;20035;-76
2022/02/13 05:12:35;;;;;;;8.73;4.00;;;0.80;99.90;;;;;;4992515;28;20034;-76
2022/02/13 05:15:02;;;;;;;10.97;4.00;;;0.70;99.90;;;;;;4978758;28;20485;-76
2022/02/13 05:17:29;;;;;;;6.90;3.53;;;0.80;99.90;;;;;;4994664;28;21241;-76
2022/02/13 05:19:55;;;;;;;6.53;3.90;;;0.70;99.90;;;;;;4962857;28;20046;-76
2022/02/13 05:22:22;;;;;;;9.03;3.97;;;0.70;99.90;;;;;;4983810;28;20370;-76
2022/02/13 05:24:48;;;;;;;7.90;4.43;;;0.70;99.90;;;;;;4993445;28;20045;-76
2022/02/13 05:27:17;;;;;;;7.00;4.03;;;0.70;99.90;;;;;;4994685;28;20042;-76
2022/02/13 05:29:43;;;;;;;9.27;5.10;;;0.70;99.90;;;;;;4976145;28;20034;-76
2022/02/13 05:32:10;;;;;;;8.67;4.50;;;0.70;99.90;;;;;;4981768;28;20034;-76
2022/02/13 05:34:36;;;;;;;12.87;5.10;;;0.70;99.90;;;;;;4994316;28;20486;-76
2022/02/13 05:37:04;;;;;;;9.60;4.87;;;0.70;99.90;;;;;;4988869;28;20042;-74
2022/02/13 05:39:30;;;;;;;7.53;4.40;;;0.70;99.90;;;;;;4977062;28;20474;-74
2022/02/13 05:41:57;;;;;;;7.77;4.63;;;0.70;99.90;;;;;;4982869;28;20038;-74
2022/02/13 05:44:24;;;;;;;8.13;4.40;;;0.70;99.90;;;;;;4992135;28;20057;-74
2022/02/13 05:46:50;;;;;;;8.30;4.63;;;0.70;99.90;;;;;;4988491;28;20038;-74
2022/02/13 05:49:17;;;;;;;7.70;3.90;;;0.70;99.90;;;;;;4975014;28;20034;-74
2022/02/13 05:51:43;;;;;;;8.50;4.37;;;0.60;99.90;;;;;;4990646;28;20061;-74
2022/02/13 05:54:10;;;;;;;9.23;4.90;;;0.60;99.90;;;;;;4990293;28;20050;-74
2022/02/13 05:56:36;;;;;;;7.47;3.80;;;0.60;99.90;;;;;;4975996;28;20049;-74
2022/02/13 05:59:03;;;;;;;9.30;4.53;;;0.60;99.90;;;;;;4988890;28;20490;-74
2022/02/13 06:01:29;;;;;;;8.37;4.10;;;0.60;99.90;;;;;;4980132;28;20038;-74
2022/02/13 06:03:56;;;;;;;9.20;4.40;;;0.60;99.90;;;;;;4993567;28;20490;-76
2022/02/13 06:06:22;;;;;;;8.13;3.70;;;0.70;99.90;;;;;;4995257;28;20037;-76
2022/02/13 06:08:49;;;;;;;8.30;3.33;;;0.60;99.90;;;;;;4991537;28;20034;-74
2022/02/13 06:11:15;;;;;;;11.03;4.63;;;0.60;99.90;;;;;;4994338;28;20487;-76
2022/02/13 06:13:41;;;;;;;8.27;3.50;;;0.60;99.90;;;;;;4993389;28;20041;-74
2022/02/13 06:16:09;;;;;;;5.67;3.50;;;0.60;99.90;;;;;;4995594;28;20043;-74
2022/02/13 06:18:38;;;;;;;5.93;3.47;;;0.50;99.90;;;;;;4990176;28;20102;-76
2022/02/13 06:21:05;;;;;;;7.17;3.97;;;0.50;99.90;;;;;;5000307;28;20034;-76
2022/02/13 06:23:31;;;;;;;7.43;3.60;;;0.50;99.90;;;;;;4994073;28;20048;-76
2022/02/13 06:25:58;;;;;;;5.90;3.50;;;0.50;99.90;;;;;;4996669;28;20030;-76
2022/02/13 06:28:25;;;;;;;9.30;4.67;;;0.50;99.90;;;;;;4989405;28;20038;-76
2022/02/13 06:30:52;;;;;;;7.60;3.60;;;0.50;99.90;;;;;;4996776;28;20474;-76
2022/02/13 06:33:18;;;;;;;8.57;3.93;;;0.50;99.90;;;;;;4979082;28;20038;-76
2022/02/13 06:35:44;;;;;;;10.20;4.07;;;0.50;99.90;;;;;;4993232;28;20038;-77
2022/02/13 06:38:13;;;;;;;11.67;4.27;;;0.50;99.90;;;;;;4955973;28;20058;-76
2022/02/13 06:40:41;;;;;;;11.70;4.30;;;0.50;99.90;;;;;;4973880;28;21319;-76
2022/02/13 06:43:08;;;;;;;8.40;4.47;;;0.50;99.90;;;;;;4978296;28;20030;-76
2022/02/13 06:45:36;;;;;;;8.87;4.57;;;0.60;99.90;;;;;;4992982;28;20029;-76
2022/02/13 06:48:04;;;;;;;5.80;3.53;;;0.60;99.90;;;;;;4974537;28;20041;-76
2022/02/13 06:50:31;;;;;;;7.23;3.80;;;0.70;99.90;;;;;;4993863;28;20034;-76
2022/02/13 06:52:57;;;;;;;7.37;4.20;;;0.70;99.90;;;;;;4994107;28;20034;-76
2022/02/13 06:55:24;;;;;;;8.00;4.30;;;0.70;99.90;;;;;;4992417;28;20035;-76
2022/02/13 06:57:50;;;;;;;7.53;4.53;;;0.70;99.90;;;;;;4991748;28;20031;-76
2022/02/13 07:00:18;;;;;;;6.13;3.50;;;0.80;99.90;;;;;;4991664;28;20026;-76
2022/02/13 07:02:45;;;;;;;8.57;4.03;;;0.80;99.90;;;;;;4993641;28;20386;-76
2022/02/13 07:05:13;;;;;;;8.30;3.77;;;0.80;99.90;;;;;;4975117;28;20045;-75
2022/02/13 07:07:39;;;;;;;8.73;5.40;;;0.80;99.90;;;;;;4991071;28;20191;-75
2022/02/13 07:10:08;;;;;;;7.00;3.40;;;0.90;99.90;;;;;;4959944;28;20072;-75
2022/02/13 07:12:34;;;;;;;6.30;3.53;;;1.00;99.90;;;;;;4967792;28;20045;-75
2022/02/13 07:15:01;;;;;;;6.50;3.60;;;1.00;99.90;;;;;;4974310;28;20045;-76
2022/02/13 07:17:27;;;;;;;8.73;4.43;;;1.10;99.90;;;;;;4990511;28;20045;-76
2022/02/13 07:19:54;;;;;;;7.90;4.17;;;1.10;99.90;;;;;;4991502;28;20481;-76
2022/02/13 07:22:21;;;;;;;7.27;4.77;;;1.20;99.90;;;;;;4997556;28;20053;-75
2022/02/13 07:24:48;;;;;;;6.10;3.90;;;1.30;99.90;;;;;;4965372;28;20038;-75
2022/02/13 07:27:15;;;;;;;9.90;4.23;;;1.30;99.90;;;;;;4993046;28;20030;-76
2022/02/13 07:29:41;;;;;;;8.03;4.30;;;1.40;99.90;;;;;;4980845;28;20498;-76
2022/02/13 07:32:08;;;;;;;10.50;5.00;;;1.50;99.90;;;;;;4996764;28;20496;-76
2022/02/13 07:34:35;;;;;;;7.37;4.27;;;1.60;99.90;;;;;;4959827;28;20041;-76
2022/02/13 07:37:02;;;;;;;7.07;4.00;;;1.60;99.90;;;;;;4994406;28;20046;-76
2022/02/13 07:39:30;;;;;;;9.73;4.43;;;1.70;99.90;;;;;;4995870;28;20037;-75
2022/02/13 07:41:57;;;;;;;8.10;4.50;;;1.80;99.90;;;;;;4980224;28;20033;-75
2022/02/13 07:44:24;;;;;;;10.00;4.53;;;1.80;99.90;;;;;;4979568;28;20027;-76
2022/02/13 07:46:51;;;;;;;7.30;4.17;;;1.90;99.90;;;;;;4976179;28;20053;-75
2022/02/13 07:49:18;;;;;;;7.60;3.77;;;2.00;99.90;;;;;;4994671;28;20034;-76
2022/02/13 07:51:45;;;;;;;5.77;3.63;;;2.00;99.90;;;;;;4976297;28;20079;-75
2022/02/13 07:54:12;;;;;;;7.30;3.90;;;2.00;99.90;;;;;;4995138;28;20046;-75
2022/02/13 07:56:39;;;;;;;8.13;4.30;;;2.10;99.90;;;;;;4993099;28;20042;-75
2022/02/13 07:59:05;;;;;;;7.20;4.33;;;2.20;99.90;;;;;;4986714;28;20022;-76
2022/02/13 08:01:32;;;;;;;9.10;4.83;;;2.30;99.90;;;;;;4994507;28;20026;-76
2022/02/13 08:03:58;;;;;;;7.13;4.23;;;2.40;99.90;;;;;;4977702;28;20374;-75
2022/02/13 08:06:25;;;;;;;5.67;4.07;;;2.40;99.90;;;;;;4962867;28;20057;-76
2022/02/13 08:08:52;;;;;;;7.53;3.97;;;2.50;99.90;;;;;;4960361;28;20060;-76
2022/02/13 08:11:18;;;;;;;8.03;4.57;;;2.70;99.90;;;;;;4979760;28;20038;-76
2022/02/13 08:13:46;;;;;;;7.73;4.33;;;2.70;99.90;;;;;;4995773;28;20034;-76
2022/02/13 08:16:12;;;;;;;5.63;3.57;;;2.90;99.90;;;;;;4977450;28;20038;-76
2022/02/13 08:18:41;;;;;;;7.33;4.00;;;2.90;99.90;;;;;;4973544;28;20041;-75
2022/02/13 08:21:08;;;;;;;8.23;4.17;;;3.00;99.90;;;;;;4995585;28;20042;-78
2022/02/13 08:23:37;;;;;;;6.97;3.80;;;3.10;99.90;;;;;;4979002;28;20046;-79
2022/02/13 08:26:03;;;;;;;11.70;5.00;;;3.10;99.90;;;;;;4975138;28;20065;-76
2022/02/13 08:28:31;;;;;;;7.30;4.20;;;3.20;99.90;;;;;;4976764;28;20034;-77
2022/02/13 08:30:58;;;;;;;6.40;3.83;;;3.20;99.90;;;;;;4992320;28;20046;-77
2022/02/13 08:33:25;;;;;;;9.53;5.80;;;3.30;99.90;;;;;;4962031;28;20045;-79
2022/02/13 08:35:51;;;;;;;11.27;6.53;;;3.40;99.90;;;;;;4992442;28;20038;-77
2022/02/13 08:38:18;;;;;;;7.33;3.83;;;3.50;99.90;;;;;;4943757;28;20038;-76
2022/02/13 08:40:44;;;;;;;7.93;4.40;;;3.60;99.90;;;;;;4990922;28;20034;-77
2022/02/13 08:43:11;;;;;;;11.03;5.47;;;3.70;99.90;;;;;;4978654;28;20042;-77
2022/02/13 08:45:38;;;;;;;9.83;5.63;;;3.80;99.90;;;;;;4975995;28;20038;-76
2022/02/13 08:48:04;;;;;;;8.73;4.70;;;3.90;99.90;;;;;;4988543;28;20045;-76
2022/02/13 08:50:31;;;;;;;8.80;4.90;;;4.00;99.90;;;;;;4993674;28;20038;-76
2022/02/13 08:52:58;;;;;;;8.13;4.57;;;4.00;99.90;;;;;;4990872;28;20065;-77
2022/02/13 08:55:24;;;;;;;6.13;4.00;;;4.10;99.90;;;;;;4975581;28;20034;-77
2022/02/13 08:57:51;;;;;;;11.40;6.40;;;4.10;99.90;;;;;;4988182;28;20034;-76
2022/02/13 09:00:19;;;;;;;7.13;4.30;;;4.20;99.90;;;;;;4959803;28;20370;-76
2022/02/13 09:02:46;;;;;;;9.67;4.43;;;4.30;99.90;;;;;;4992375;28;20034;-77
2022/02/13 09:05:13;;;;;;;6.97;4.33;;;4.30;99.90;;;;;;4976798;28;20038;-76
2022/02/13 09:07:40;;;;;;;7.57;3.90;;;4.40;99.90;;;;;;4957532;28;20045;-76
2022/02/13 09:10:12;;;;;;;18.93;8.47;;;4.50;99.90;;;;;;4987516;28;20030;-76
2022/02/13 09:12:39;;;;;;;7.77;5.10;;;4.60;99.90;;;;;;4989350;28;20493;-77
2022/02/13 09:15:07;;;;;;;9.13;5.00;;;4.60;99.90;;;;;;4991586;28;20031;-76
2022/02/13 09:17:34;;;;;;;6.53;3.83;;;4.70;99.90;;;;;;4989049;28;20675;-77
2022/02/13 09:20:01;;;;;;;5.27;3.73;;;4.80;99.90;;;;;;4958467;28;20030;-76
2022/02/13 09:22:27;;;;;;;9.13;5.23;;;4.80;99.90;;;;;;4975925;28;20489;-77
2022/02/13 09:24:54;;;;;;;7.63;4.40;;;4.90;99.90;;;;;;4991448;28;20042;-76
2022/02/13 09:27:20;;;;;;;6.65;4.18;;;5.00;99.90;;;;;;4989954;28;20030;-76
2022/02/13 09:29:46;;;;;;;7.03;4.37;;;5.10;99.90;;;;;;4992083;28;20046;-78
2022/02/13 09:32:15;;;;;;;5.53;3.27;;;5.20;99.90;;;;;;4978336;28;20027;-76
2022/02/13 09:34:41;;;;;;;6.82;4.40;;;5.30;99.90;;;;;;4975587;28;20039;-77
2022/02/13 09:37:07;;;;;;;6.97;3.77;;;5.40;99.90;;;;;;4992103;28;20363;-77
2022/02/13 09:39:34;;;;;;;6.45;3.58;;;5.60;99.90;;;;;;4961279;28;20489;-77
2022/02/13 09:42:00;;;;;;;6.82;3.63;;;5.70;99.90;;;;;;4994055;28;20034;-78
2022/02/13 09:44:27;;;;;;;6.18;3.88;;;5.80;99.90;;;;;;4946067;28;20069;-79
2022/02/13 09:46:53;;;;;;;7.72;4.00;;;5.90;99.90;;;;;;4959590;28;20049;-82
2022/02/13 09:49:22;;;;;;;8.48;3.80;;;6.00;99.90;;;;;;4975062;28;20046;-77
2022/02/13 09:51:49;;;;;;;7.28;4.30;;;6.00;99.90;;;;;;4993112;28;20476;-81
2022/02/13 09:54:16;;;;;;;6.05;4.03;;;6.10;99.90;;;;;;4972474;28;20026;-82
2022/02/13 09:56:49;;;;;;;5.35;3.50;;;6.10;99.90;;;;;;4959108;28;20049;-78
2022/02/13 09:59:15;;;;;;;8.68;5.47;;;6.10;99.90;;;;;;4991401;28;20038;-77
2022/02/13 10:01:45;;;;;;;8.77;5.07;;;6.20;99.90;;;;;;4992113;28;20057;-80
2022/02/13 10:04:12;;;;;;;8.15;5.63;;;6.20;99.90;;;;;;4990755;28;20061;-78
2022/02/13 10:06:40;;;;;;;9.15;5.55;;;6.30;99.90;;;;;;4973886;28;20037;-76
2022/02/13 10:09:08;;;;;;;7.70;4.43;;;6.30;99.90;;;;;;4958138;28;20758;-76
2022/02/13 10:11:39;;;;;;;9.93;5.07;;;6.40;99.90;;;;;;4994220;28;20382;-77
2022/02/13 10:14:12;;;;;;;7.13;4.68;;;6.50;99.90;;;;;;4974229;28;20070;-77
2022/02/13 10:16:43;;;;;;;6.82;4.15;;;6.50;99.90;;;;;;4956424;28;20042;-76
2022/02/13 10:19:22;;;;;;;4.38;3.30;;;6.60;99.90;;;;;;4989665;28;20466;-77
2022/02/13 10:21:57;;;;;;;5.22;2.83;;;6.70;99.90;;;;;;4977025;28;20041;-77
2022/02/13 10:24:29;;;;;;;8.98;3.50;;;6.90;99.90;;;;;;4993248;28;20548;-77
2022/02/13 10:27:08;;;;;;;6.55;4.03;;;7.00;99.90;;;;;;4974129;28;20046;-80
2022/02/13 10:29:44;;;;;;;7.93;4.13;;;7.30;99.90;;;;;;4975599;28;20038;-80
2022/02/13 10:32:25;;;;;;;14.30;7.55;;;7.40;99.90;;;;;;4973314;28;20042;-78
2022/02/13 10:35:10;;;;;;;7.28;3.70;;;7.50;99.90;;;;;;4988254;28;20041;-78
2022/02/13 10:37:44;;;;;;;5.50;3.80;;;7.70;99.90;;;;;;4968641;28;20035;-78
2022/02/13 10:40:14;;;;;;;6.38;3.40;;;7.80;99.90;;;;;;4988583;28;20038;-77
2022/02/13 10:42:41;;;;;;;4.78;2.72;;;7.90;99.90;;;;;;4988669;28;20034;-78
2022/02/13 10:45:25;;;;;;;4.70;3.05;;;8.00;99.90;;;;;;4990801;28;20508;-78
2022/02/13 10:47:56;;;;;;;6.90;2.85;;;8.20;99.90;;;;;;4987678;28;20030;-77
2022/02/13 10:50:23;;;;;;;5.53;3.20;;;8.40;99.90;;;;;;4988349;28;20381;-77
2022/02/13 10:52:52;;;;;;;4.03;2.78;;;8.60;99.90;;;;;;4991252;28;20116;-78
2022/02/13 10:55:19;;;;;;;4.75;2.83;;;8.80;99.90;;;;;;4974067;28;20034;-77
2022/02/13 10:57:46;;;;;;;6.13;2.67;;;9.00;99.90;;;;;;4970686;28;20039;-77
2022/02/13 11:00:15;;;;;;;4.60;2.25;;;9.20;99.90;;;;;;4988583;28;20524;-77
2022/02/13 11:02:45;;;;;;;4.55;3.00;;;9.50;99.90;;;;;;4972795;28;20061;-77
2022/02/13 11:05:13;;;;;;;5.65;2.63;;;9.70;99.90;;;;;;4987282;28;20049;-77
2022/02/13 11:07:46;;;;;;;5.32;2.88;;;9.90;99.90;;;;;;4988693;28;20028;-78
2022/02/13 11:10:24;;;;;;;6.45;2.55;;;10.10;99.90;;;;;;4989357;28;20041;-77
2022/02/13 11:12:54;;;;;;;4.60;2.67;;;10.40;99.90;;;;;;4987992;28;20041;-76
2022/02/13 11:15:31;;;;;;;3.97;2.70;;;10.50;99.90;;;;;;4973133;28;20046;-76
2022/02/13 11:18:03;;;;;;;5.13;2.80;;;10.70;99.90;;;;;;4986086;28;20030;-78
2022/02/13 11:20:31;;;;;;;4.75;2.53;;;10.80;99.90;;;;;;4961081;28;20041;-78
2022/02/13 11:23:17;;;;;;;3.80;2.15;;;10.70;99.90;;;;;;4990721;28;20034;-76
2022/02/13 11:26:01;;;;;;;7.88;4.05;;;10.50;99.90;;;;;;4991294;28;20027;-76
2022/02/13 11:28:42;;;;;;;5.30;3.38;;;10.30;99.90;;;;;;4987854;28;20038;-77
2022/02/13 11:31:28;;;;;;;6.47;3.03;;;10.00;99.90;;;;;;4992576;28;20046;-76
2022/02/13 11:33:56;;;;;;;3.67;2.92;;;9.80;99.90;;;;;;4991338;28;20417;-76
2022/02/13 11:36:52;;;;;;;4.15;2.38;;;9.70;99.90;;;;;;4988223;28;20053;-77
2022/02/13 11:39:33;;;;;;;6.40;2.03;;;9.60;99.90;;;;;;4993506;28;20053;-76
2022/02/13 11:42:09;;;;;;;5.25;2.50;;;9.60;99.90;;;;;;4959258;28;20497;-76
2022/02/13 11:44:44;;;;;;;5.60;2.63;;;9.50;99.90;;;;;;4956655;28;20030;-76
2022/02/13 11:47:12;;;;;;;3.47;2.38;;;9.50;99.90;;;;;;4968393;28;20267;-76
2022/02/13 11:50:07;;;;;;;7.68;2.70;;;9.50;99.90;;;;;;4961572;28;20034;-76
2022/02/13 11:52:38;;;;;;;4.93;3.35;;;9.40;99.90;;;;;;4991734;28;20065;-75
2022/02/13 11:55:06;;;;;;;5.95;3.50;;;9.40;99.90;;;;;;4992601;28;20050;-76
2022/02/13 11:57:33;;;;;;;4.93;2.88;;;9.50;99.90;;;;;;4988714;28;20370;-76
2022/02/13 11:59:59;;;;;;;4.00;2.65;;;9.50;99.90;;;;;;4995107;28;20042;-77
2022/02/13 12:02:35;;;;;;;3.97;2.33;;;9.50;99.90;;;;;;4972189;28;20034;-74
2022/02/13 12:05:07;;;;;;;6.68;3.38;;;9.60;99.90;;;;;;4971765;28;20043;-77
2022/02/13 12:07:43;;;;;;;5.20;3.05;;;9.60;99.90;;;;;;4989922;28;20085;-77
2022/02/13 12:10:11;;;;;;;4.63;2.80;;;9.70;99.90;;;;;;4977321;28;20422;-77
2022/02/13 12:12:42;;;;;;;4.72;2.40;;;9.70;99.90;;;;;;4975493;28;20038;-77
2022/02/13 12:15:09;;;;;;;4.32;2.60;;;9.80;99.90;;;;;;4978634;28;20038;-77
2022/02/13 12:17:36;;;;;;;5.13;3.13;;;10.00;99.90;;;;;;4957846;28;20057;-77
2022/02/13 12:20:11;;;;;;;4.53;2.47;;;10.10;99.90;;;;;;4979552;28;20482;-77
2022/02/13 12:22:39;;;;;;;5.95;3.15;;;10.50;99.90;;;;;;4994302;28;20030;-77
2022/02/13 12:25:08;;;;;;;5.35;2.78;;;10.90;99.90;;;;;;4992749;28;20030;-77
2022/02/13 12:27:36;;;;;;;4.22;2.70;;;11.40;99.90;;;;;;4990316;28;20047;-76
2022/02/13 12:30:05;;;;;;;4.38;3.28;;;11.80;99.90;;;;;;4999080;28;20042;-76
2022/02/13 12:32:37;;;;;;;5.68;2.72;;;12.10;99.90;;;;;;4997768;28;20050;-77
2022/02/13 12:35:09;;;;;;;5.43;2.88;;;12.00;99.90;;;;;;4991944;28;20417;-78
2022/02/13 12:37:46;;;;;;;6.70;2.97;;;11.90;99.90;;;;;;4993334;28;20044;-77
2022/02/13 12:40:15;;;;;;;3.88;2.63;;;11.80;99.90;;;;;;4983396;28;20045;-79
2022/02/13 12:42:44;;;;;;;4.82;2.78;;;11.70;99.90;;;;;;4993805;28;20073;-76
2022/02/13 12:45:20;;;;;;;5.35;2.72;;;11.60;99.90;;;;;;4970831;28;20025;-77
2022/02/13 12:47:54;;;;;;;3.75;2.58;;;11.50;99.90;;;;;;4989425;28;20030;-76
2022/02/13 12:50:24;;;;;;;10.02;5.13;;;11.50;99.90;;;;;;4978876;28;20022;-76
2022/02/13 12:52:51;;;;;;;12.70;8.82;;;11.60;99.90;;;;;;4942332;28;20046;-76
2022/02/13 12:55:20;;;;;;;8.85;6.20;;;11.50;99.90;;;;;;5000952;28;20046;-76
2022/02/13 12:57:52;;;;;;;4.68;3.50;;;11.40;99.90;;;;;;4991294;28;20474;-76